sensor_id;sensor_type;location;lat;lon;timestamp;temperature;humidity
37972;DHT22;23794;48.234;8.344;2022-09-17T00:00:49;9.00;99.90
37972;DHT22;23794;48.234;8.344;2022-09-17T00:03:16;8.90;99.90
37972;DHT22;23794;48.234;8.344;2022-09-17T00:05:43;8.90;99.90
37972;DHT22;23794;48.234;8.344;2022-09-17T00:08:13;9.00;99.90
37972;DHT22;23794;48.234;8.344;2022-09-17T00:10:41;9.00;99.90
37972;DHT22;23794;48.234;8.344;2022-09-17T00:13:09;9.10;99.90
37972;DHT22;23794;48.234;8.344;2022-09-17T00:15:41;9.10;99.90
37972;DHT22;23794;48.234;8.344;2022-09-17T00:18:08;9.10;99.90
37972;DHT22;23794;48.234;8.344;2022-09-17T00:20:45;9.20;99.90
37972;DHT22;23794;48.234;8.344;2022-09-17T00:23:13;9.20;99.90
37972;DHT22;23794;48.234;8.344;2022-09-17T00:25:42;9.20;99.90
37972;DHT22;23794;48.234;8.344;2022-09-17T00:28:11;9.10;99.90
37972;DHT22;23794;48.234;8.344;2022-09-17T00:30:41;9.20;99.90
37972;DHT22;23794;48.234;8.344;2022-09-17T00:33:10;8.90;99.90
37972;DHT22;23794;48.234;8.344;2022-09-17T00:35:37;8.90;99.90
37972;DHT22;23794;48.234;8.344;2022-09-17T00:38:04;8.80;99.90
37972;DHT22;23794;48.234;8.344;2022-09-17T00:40:31;8.80;99.90
37972;DHT22;23794;48.234;8.344;2022-09-17T00:42:58;8.70;99.90
37972;DHT22;23794;48.234;8.344;2022-09-17T00:45:25;8.70;99.90
37972;DHT22;23794;48.234;8.344;2022-09-17T00:48:04;8.70;99.90
37972;DHT22;23794;48.234;8.344;2022-09-17T00:50:39;8.70;99.90
37972;DHT22;23794;48.234;8.344;2022-09-17T00:53:13;8.60;99.90
37972;DHT22;23794;48.234;8.344;2022-09-17T00:55:56;8.60;99.90
37972;DHT22;23794;48.234;8.344;2022-09-17T00:58:24;8.60;99.90
37972;DHT22;23794;48.234;8.344;2022-09-17T01:00:52;8.60;99.90
37972;DHT22;23794;48.234;8.344;2022-09-17T01:03:19;8.50;99.90
37972;DHT22;23794;48.234;8.344;2022-09-17T01:09:35;8.40;99.90
37972;DHT22;23794;48.234;8.344;2022-09-17T01:14:59;8.50;99.90
37972;DHT22;23794;48.234;8.344;2022-09-17T01:24:12;8.50;99.90
37972;DHT22;23794;48.234;8.344;2022-09-17T01:26:49;8.60;99.90
37972;DHT22;23794;48.234;8.344;2022-09-17T01:29:48;8.50;99.90
37972;DHT22;23794;48.234;8.344;2022-09-17T01:32:41;8.40;99.90
37972;DHT22;23794;48.234;8.344;2022-09-17T01:41:02;8.30;99.90
37972;DHT22;23794;48.234;8.344;2022-09-17T01:43:57;8.30;99.90
37972;DHT22;23794;48.234;8.344;2022-09-17T01:46:32;8.30;99.90
37972;DHT22;23794;48.234;8.344;2022-09-17T01:49:04;8.30;99.90
37972;DHT22;23794;48.234;8.344;2022-09-17T01:51:41;8.20;99.90
37972;DHT22;23794;48.234;8.344;2022-09-17T01:54:30;8.30;99.90
37972;DHT22;23794;48.234;8.344;2022-09-17T01:57:09;8.40;99.90
37972;DHT22;23794;48.234;8.344;2022-09-17T01:59:58;8.30;99.90
37972;DHT22;23794;48.234;8.344;2022-09-17T02:03:03;8.40;99.90
37972;DHT22;23794;48.234;8.344;2022-09-17T02:08:18;8.40;99.90
37972;DHT22;23794;48.234;8.344;2022-09-17T02:10:55;8.40;99.90
37972;DHT22;23794;48.234;8.344;2022-09-17T02:13:33;8.40;99.90
37972;DHT22;23794;48.234;8.344;2022-09-17T02:16:11;8.50;99.90
37972;DHT22;23794;48.234;8.344;2022-09-17T02:21:36;8.40;99.90
37972;DHT22;23794;48.234;8.344;2022-09-17T02:24:22;8.40;99.90
37972;DHT22;23794;48.234;8.344;2022-09-17T02:26:57;8.40;99.90
37972;DHT22;23794;48.234;8.344;2022-09-17T02:29:32;8.50;99.90
37972;DHT22;23794;48.234;8.344;2022-09-17T02:32:00;8.50;99.90
37972;DHT22;23794;48.234;8.344;2022-09-17T02:34:28;8.50;99.90
37972;DHT22;23794;48.234;8.344;2022-09-17T02:36:56;8.40;99.90
37972;DHT22;23794;48.234;8.344;2022-09-17T02:39:27;8.40;99.90
37972;DHT22;23794;48.234;8.344;2022-09-17T02:44:48;8.30;99.90
37972;DHT22;23794;48.234;8.344;2022-09-17T02:50:02;8.20;99.90
37972;DHT22;23794;48.234;8.344;2022-09-17T02:57:54;8.20;99.90
37972;DHT22;23794;48.234;8.344;2022-09-17T03:00:23;8.20;99.90
37972;DHT22;23794;48.234;8.344;2022-09-17T03:03:11;8.10;99.90
37972;DHT22;23794;48.234;8.344;2022-09-17T03:05:41;8.00;99.90
37972;DHT22;23794;48.234;8.344;2022-09-17T03:08:12;7.90;99.90
37972;DHT22;23794;48.234;8.344;2022-09-17T03:10:39;7.90;99.90
37972;DHT22;23794;48.234;8.344;2022-09-17T03:13:07;7.90;99.90
37972;DHT22;23794;48.234;8.344;2022-09-17T03:15:33;7.80;99.90
37972;DHT22;23794;48.234;8.344;2022-09-17T03:18:00;7.80;99.90
37972;DHT22;23794;48.234;8.344;2022-09-17T03:20:27;7.70;99.90
37972;DHT22;23794;48.234;8.344;2022-09-17T03:22:54;7.60;99.90
37972;DHT22;23794;48.234;8.344;2022-09-17T03:25:20;7.60;99.90
37972;DHT22;23794;48.234;8.344;2022-09-17T03:27:47;7.50;99.90
37972;DHT22;23794;48.234;8.344;2022-09-17T03:30:14;7.40;99.90
37972;DHT22;23794;48.234;8.344;2022-09-17T03:32:41;7.40;99.90
37972;DHT22;23794;48.234;8.344;2022-09-17T03:35:08;7.40;99.90
37972;DHT22;23794;48.234;8.344;2022-09-17T03:37:34;7.40;99.90
37972;DHT22;23794;48.234;8.344;2022-09-17T03:40:02;7.50;99.90
37972;DHT22;23794;48.234;8.344;2022-09-17T03:42:28;7.50;99.90
37972;DHT22;23794;48.234;8.344;2022-09-17T03:44:55;7.40;99.90
37972;DHT22;23794;48.234;8.344;2022-09-17T03:47:22;7.40;99.90
37972;DHT22;23794;48.234;8.344;2022-09-17T03:49:49;7.50;99.90
37972;DHT22;23794;48.234;8.344;2022-09-17T03:52:17;7.40;99.90
37972;DHT22;23794;48.234;8.344;2022-09-17T03:54:44;7.40;99.90
37972;DHT22;23794;48.234;8.344;2022-09-17T03:57:11;7.40;99.90
37972;DHT22;23794;48.234;8.344;2022-09-17T03:59:37;7.40;99.90
37972;DHT22;23794;48.234;8.344;2022-09-17T04:02:05;7.40;99.90
37972;DHT22;23794;48.234;8.344;2022-09-17T04:04:32;7.50;99.90
37972;DHT22;23794;48.234;8.344;2022-09-17T04:06:59;7.50;99.90
37972;DHT22;23794;48.234;8.344;2022-09-17T04:09:26;7.50;99.90
37972;DHT22;23794;48.234;8.344;2022-09-17T04:11:53;7.50;99.90
37972;DHT22;23794;48.234;8.344;2022-09-17T04:14:19;7.50;99.90
37972;DHT22;23794;48.234;8.344;2022-09-17T04:16:46;7.50;99.90
37972;DHT22;23794;48.234;8.344;2022-09-17T04:19:13;7.50;99.90
37972;DHT22;23794;48.234;8.344;2022-09-17T04:21:40;7.50;99.90
37972;DHT22;23794;48.234;8.344;2022-09-17T04:24:06;7.50;99.90
37972;DHT22;23794;48.234;8.344;2022-09-17T04:26:33;7.50;99.90
37972;DHT22;23794;48.234;8.344;2022-09-17T04:29:00;7.60;99.90
37972;DHT22;23794;48.234;8.344;2022-09-17T04:31:27;7.60;99.90
37972;DHT22;23794;48.234;8.344;2022-09-17T04:33:53;7.60;99.90
37972;DHT22;23794;48.234;8.344;2022-09-17T04:36:20;7.70;99.90
37972;DHT22;23794;48.234;8.344;2022-09-17T04:38:48;7.60;99.90
37972;DHT22;23794;48.234;8.344;2022-09-17T04:41:14;7.60;99.90
37972;DHT22;23794;48.234;8.344;2022-09-17T04:43:41;7.60;99.90
37972;DHT22;23794;48.234;8.344;2022-09-17T04:46:08;7.70;99.90
37972;DHT22;23794;48.234;8.344;2022-09-17T04:48:35;7.70;99.90
37972;DHT22;23794;48.234;8.344;2022-09-17T04:51:02;7.70;99.90
37972;DHT22;23794;48.234;8.344;2022-09-17T04:53:28;7.70;99.90
37972;DHT22;23794;48.234;8.344;2022-09-17T04:55:55;7.80;99.90
37972;DHT22;23794;48.234;8.344;2022-09-17T04:58:22;7.70;99.90
37972;DHT22;23794;48.234;8.344;2022-09-17T05:00:48;7.70;99.90
37972;DHT22;23794;48.234;8.344;2022-09-17T05:03:16;7.70;99.90
37972;DHT22;23794;48.234;8.344;2022-09-17T05:05:43;7.70;99.90
37972;DHT22;23794;48.234;8.344;2022-09-17T05:08:09;7.70;99.90
37972;DHT22;23794;48.234;8.344;2022-09-17T05:10:37;7.70;99.90
37972;DHT22;23794;48.234;8.344;2022-09-17T05:13:04;7.70;99.90
37972;DHT22;23794;48.234;8.344;2022-09-17T05:15:30;7.60;99.90
37972;DHT22;23794;48.234;8.344;2022-09-17T05:17:57;7.70;99.90
37972;DHT22;23794;48.234;8.344;2022-09-17T05:20:24;7.60;99.90
37972;DHT22;23794;48.234;8.344;2022-09-17T05:22:51;7.60;99.90
37972;DHT22;23794;48.234;8.344;2022-09-17T05:25:20;7.60;99.90
37972;DHT22;23794;48.234;8.344;2022-09-17T05:27:51;7.50;99.90
37972;DHT22;23794;48.234;8.344;2022-09-17T05:30:18;7.50;99.90
37972;DHT22;23794;48.234;8.344;2022-09-17T05:32:45;7.60;99.90
37972;DHT22;23794;48.234;8.344;2022-09-17T05:35:12;7.50;99.90
37972;DHT22;23794;48.234;8.344;2022-09-17T05:37:39;7.50;99.90
37972;DHT22;23794;48.234;8.344;2022-09-17T05:40:07;7.60;99.90
37972;DHT22;23794;48.234;8.344;2022-09-17T05:42:34;7.60;99.90
37972;DHT22;23794;48.234;8.344;2022-09-17T05:45:01;7.60;99.90
37972;DHT22;23794;48.234;8.344;2022-09-17T05:47:28;7.60;99.90
37972;DHT22;23794;48.234;8.344;2022-09-17T05:49:55;7.60;99.90
37972;DHT22;23794;48.234;8.344;2022-09-17T05:52:26;7.50;99.90
37972;DHT22;23794;48.234;8.344;2022-09-17T05:54:54;7.60;99.90
37972;DHT22;23794;48.234;8.344;2022-09-17T05:57:21;7.50;99.90
37972;DHT22;23794;48.234;8.344;2022-09-17T05:59:48;7.50;99.90
37972;DHT22;23794;48.234;8.344;2022-09-17T06:02:15;7.50;99.90
37972;DHT22;23794;48.234;8.344;2022-09-17T06:04:42;7.50;99.90
37972;DHT22;23794;48.234;8.344;2022-09-17T06:07:08;7.60;99.90
37972;DHT22;23794;48.234;8.344;2022-09-17T06:09:36;7.70;99.90
37972;DHT22;23794;48.234;8.344;2022-09-17T06:12:07;7.70;99.90
37972;DHT22;23794;48.234;8.344;2022-09-17T06:14:33;7.60;99.90
37972;DHT22;23794;48.234;8.344;2022-09-17T06:17:00;7.60;99.90
37972;DHT22;23794;48.234;8.344;2022-09-17T06:19:27;7.70;99.90
37972;DHT22;23794;48.234;8.344;2022-09-17T06:21:54;7.80;99.90
37972;DHT22;23794;48.234;8.344;2022-09-17T06:24:21;7.80;99.90
37972;DHT22;23794;48.234;8.344;2022-09-17T06:26:48;7.80;99.90
37972;DHT22;23794;48.234;8.344;2022-09-17T06:29:15;7.80;99.90
37972;DHT22;23794;48.234;8.344;2022-09-17T06:31:42;7.80;99.90
37972;DHT22;23794;48.234;8.344;2022-09-17T06:34:10;7.80;99.90
37972;DHT22;23794;48.234;8.344;2022-09-17T06:36:37;7.80;99.90
37972;DHT22;23794;48.234;8.344;2022-09-17T06:39:04;7.80;99.90
37972;DHT22;23794;48.234;8.344;2022-09-17T06:41:31;7.80;99.90
37972;DHT22;23794;48.234;8.344;2022-09-17T06:44:00;7.80;99.90
37972;DHT22;23794;48.234;8.344;2022-09-17T06:46:27;7.80;99.90
37972;DHT22;23794;48.234;8.344;2022-09-17T06:48:54;8.00;99.90
37972;DHT22;23794;48.234;8.344;2022-09-17T06:51:21;7.90;99.90
37972;DHT22;23794;48.234;8.344;2022-09-17T06:53:49;7.90;99.90
37972;DHT22;23794;48.234;8.344;2022-09-17T06:56:15;8.10;99.90
37972;DHT22;23794;48.234;8.344;2022-09-17T06:58:43;8.10;99.90
37972;DHT22;23794;48.234;8.344;2022-09-17T07:01:11;8.10;99.90
37972;DHT22;23794;48.234;8.344;2022-09-17T07:03:38;8.10;99.90
37972;DHT22;23794;48.234;8.344;2022-09-17T07:06:08;8.30;99.90
37972;DHT22;23794;48.234;8.344;2022-09-17T07:08:36;8.40;99.90
37972;DHT22;23794;48.234;8.344;2022-09-17T07:11:04;8.50;99.90
37972;DHT22;23794;48.234;8.344;2022-09-17T07:13:31;8.50;99.90
37972;DHT22;23794;48.234;8.344;2022-09-17T07:15:59;8.50;99.90
37972;DHT22;23794;48.234;8.344;2022-09-17T07:18:27;8.60;99.90
37972;DHT22;23794;48.234;8.344;2022-09-17T07:20:58;8.70;99.90
37972;DHT22;23794;48.234;8.344;2022-09-17T07:23:30;8.60;99.90
37972;DHT22;23794;48.234;8.344;2022-09-17T07:26:03;8.70;99.90
37972;DHT22;23794;48.234;8.344;2022-09-17T07:28:30;8.70;99.90
37972;DHT22;23794;48.234;8.344;2022-09-17T07:30:57;8.70;99.90
37972;DHT22;23794;48.234;8.344;2022-09-17T07:33:26;8.70;99.90
37972;DHT22;23794;48.234;8.344;2022-09-17T07:35:58;8.80;99.90
37972;DHT22;23794;48.234;8.344;2022-09-17T07:38:26;8.80;99.90
37972;DHT22;23794;48.234;8.344;2022-09-17T07:43:25;8.80;99.90
37972;DHT22;23794;48.234;8.344;2022-09-17T07:45:53;8.80;99.90
37972;DHT22;23794;48.234;8.344;2022-09-17T07:48:20;8.80;99.90
37972;DHT22;23794;48.234;8.344;2022-09-17T07:50:47;8.80;99.90
37972;DHT22;23794;48.234;8.344;2022-09-17T07:53:14;8.80;99.90
37972;DHT22;23794;48.234;8.344;2022-09-17T07:55:42;8.80;99.90
37972;DHT22;23794;48.234;8.344;2022-09-17T07:58:16;8.80;99.90
37972;DHT22;23794;48.234;8.344;2022-09-17T08:00:42;8.80;99.90
37972;DHT22;23794;48.234;8.344;2022-09-17T08:03:09;8.90;99.90
37972;DHT22;23794;48.234;8.344;2022-09-17T08:05:36;8.80;99.90
37972;DHT22;23794;48.234;8.344;2022-09-17T08:08:03;8.70;99.90
37972;DHT22;23794;48.234;8.344;2022-09-17T08:10:30;8.70;99.90
37972;DHT22;23794;48.234;8.344;2022-09-17T08:12:57;8.80;99.90
37972;DHT22;23794;48.234;8.344;2022-09-17T08:15:24;8.90;99.90
37972;DHT22;23794;48.234;8.344;2022-09-17T08:17:51;8.90;99.90
37972;DHT22;23794;48.234;8.344;2022-09-17T08:20:18;8.90;99.90
37972;DHT22;23794;48.234;8.344;2022-09-17T08:22:45;9.00;99.90
37972;DHT22;23794;48.234;8.344;2022-09-17T08:25:16;9.00;99.90
37972;DHT22;23794;48.234;8.344;2022-09-17T08:27:43;9.10;99.90
37972;DHT22;23794;48.234;8.344;2022-09-17T08:30:10;9.10;99.90
37972;DHT22;23794;48.234;8.344;2022-09-17T08:32:37;9.20;99.90
37972;DHT22;23794;48.234;8.344;2022-09-17T08:35:05;9.30;99.90
37972;DHT22;23794;48.234;8.344;2022-09-17T08:37:32;9.50;99.90
37972;DHT22;23794;48.234;8.344;2022-09-17T08:39:59;9.50;99.90
37972;DHT22;23794;48.234;8.344;2022-09-17T08:42:45;9.50;99.90
37972;DHT22;23794;48.234;8.344;2022-09-17T08:45:15;9.40;99.90
37972;DHT22;23794;48.234;8.344;2022-09-17T08:47:45;9.30;99.90
37972;DHT22;23794;48.234;8.344;2022-09-17T08:50:26;9.20;99.90
37972;DHT22;23794;48.234;8.344;2022-09-17T08:56:08;9.50;99.90
37972;DHT22;23794;48.234;8.344;2022-09-17T09:04:41;9.40;99.90
37972;DHT22;23794;48.234;8.344;2022-09-17T09:07:19;9.40;99.90
37972;DHT22;23794;48.234;8.344;2022-09-17T09:09:57;9.40;99.90
37972;DHT22;23794;48.234;8.344;2022-09-17T09:12:33;9.50;99.90
37972;DHT22;23794;48.234;8.344;2022-09-17T09:15:05;9.40;99.90
37972;DHT22;23794;48.234;8.344;2022-09-17T09:17:43;9.50;99.90
37972;DHT22;23794;48.234;8.344;2022-09-17T09:20:20;9.50;99.90
37972;DHT22;23794;48.234;8.344;2022-09-17T09:22:51;9.50;99.90
37972;DHT22;23794;48.234;8.344;2022-09-17T09:25:24;9.60;99.90
37972;DHT22;23794;48.234;8.344;2022-09-17T09:33:32;9.70;99.90
37972;DHT22;23794;48.234;8.344;2022-09-17T09:36:01;9.80;99.90
37972;DHT22;23794;48.234;8.344;2022-09-17T09:38:35;9.80;99.90
37972;DHT22;23794;48.234;8.344;2022-09-17T09:41:10;9.70;99.90
37972;DHT22;23794;48.234;8.344;2022-09-17T09:43:47;9.50;99.90
37972;DHT22;23794;48.234;8.344;2022-09-17T09:49:52;9.60;99.90
37972;DHT22;23794;48.234;8.344;2022-09-17T09:58:04;9.40;99.90
37972;DHT22;23794;48.234;8.344;2022-09-17T10:00:38;9.40;99.90
37972;DHT22;23794;48.234;8.344;2022-09-17T10:03:20;9.40;99.90
37972;DHT22;23794;48.234;8.344;2022-09-17T10:08:26;9.60;99.90
37972;DHT22;23794;48.234;8.344;2022-09-17T10:13:32;9.90;99.90
37972;DHT22;23794;48.234;8.344;2022-09-17T10:16:19;10.20;99.90
37972;DHT22;23794;48.234;8.344;2022-09-17T10:18:47;10.50;99.90
37972;DHT22;23794;48.234;8.344;2022-09-17T10:21:35;10.50;99.90
37972;DHT22;23794;48.234;8.344;2022-09-17T10:24:08;10.40;99.90
37972;DHT22;23794;48.234;8.344;2022-09-17T10:26:37;10.50;99.90
37972;DHT22;23794;48.234;8.344;2022-09-17T10:29:09;10.40;99.90
37972;DHT22;23794;48.234;8.344;2022-09-17T10:31:54;10.30;99.90
37972;DHT22;23794;48.234;8.344;2022-09-17T10:34:27;10.30;99.90
37972;DHT22;23794;48.234;8.344;2022-09-17T10:36:55;10.40;99.90
37972;DHT22;23794;48.234;8.344;2022-09-17T10:44:27;11.00;99.90
37972;DHT22;23794;48.234;8.344;2022-09-17T10:46:54;11.20;99.90
37972;DHT22;23794;48.234;8.344;2022-09-17T10:52:37;11.00;99.90
37972;DHT22;23794;48.234;8.344;2022-09-17T11:01:01;10.50;99.90
37972;DHT22;23794;48.234;8.344;2022-09-17T11:04:03;10.60;99.90
37972;DHT22;23794;48.234;8.344;2022-09-17T11:06:57;10.80;99.90
37972;DHT22;23794;48.234;8.344;2022-09-17T11:10:00;10.70;99.90
37972;DHT22;23794;48.234;8.344;2022-09-17T11:12:52;10.70;99.90
37972;DHT22;23794;48.234;8.344;2022-09-17T11:15:38;10.50;99.90
37972;DHT22;23794;48.234;8.344;2022-09-17T11:24:16;10.70;99.90
37972;DHT22;23794;48.234;8.344;2022-09-17T11:35:20;10.70;99.90
37972;DHT22;23794;48.234;8.344;2022-09-17T11:37:57;10.90;99.90
37972;DHT22;23794;48.234;8.344;2022-09-17T11:40:36;11.20;99.90
37972;DHT22;23794;48.234;8.344;2022-09-17T11:43:26;11.10;99.90
37972;DHT22;23794;48.234;8.344;2022-09-17T11:46:11;11.20;99.90
37972;DHT22;23794;48.234;8.344;2022-09-17T11:48:54;11.30;99.90
37972;DHT22;23794;48.234;8.344;2022-09-17T11:51:41;11.40;99.90
37972;DHT22;23794;48.234;8.344;2022-09-17T11:54:27;11.50;99.90
37972;DHT22;23794;48.234;8.344;2022-09-17T11:57:12;11.60;99.90
37972;DHT22;23794;48.234;8.344;2022-09-17T11:59:50;11.60;99.90
37972;DHT22;23794;48.234;8.344;2022-09-17T12:05:25;11.30;99.90
37972;DHT22;23794;48.234;8.344;2022-09-17T12:11:18;11.30;99.90
37972;DHT22;23794;48.234;8.344;2022-09-17T12:14:07;10.90;99.90
37972;DHT22;23794;48.234;8.344;2022-09-17T12:16:44;10.60;99.90
37972;DHT22;23794;48.234;8.344;2022-09-17T12:19:32;10.50;99.90
37972;DHT22;23794;48.234;8.344;2022-09-17T12:22:07;10.50;99.90
37972;DHT22;23794;48.234;8.344;2022-09-17T12:24:35;10.60;99.90
37972;DHT22;23794;48.234;8.344;2022-09-17T12:27:24;10.90;99.90
37972;DHT22;23794;48.234;8.344;2022-09-17T12:41:07;10.90;99.90
37972;DHT22;23794;48.234;8.344;2022-09-17T12:43:58;11.00;99.90
37972;DHT22;23794;48.234;8.344;2022-09-17T12:58:45;11.50;99.90
37972;DHT22;23794;48.234;8.344;2022-09-17T13:01:22;11.60;99.90
37972;DHT22;23794;48.234;8.344;2022-09-17T13:03:54;11.80;99.90
37972;DHT22;23794;48.234;8.344;2022-09-17T13:13:01;12.20;99.90
37972;DHT22;23794;48.234;8.344;2022-09-17T13:18:19;12.60;99.90
37972;DHT22;23794;48.234;8.344;2022-09-17T13:21:00;12.50;99.90
37972;DHT22;23794;48.234;8.344;2022-09-17T13:26:00;12.60;99.90
37972;DHT22;23794;48.234;8.344;2022-09-17T13:28:44;12.30;99.90
37972;DHT22;23794;48.234;8.344;2022-09-17T13:36:51;11.60;99.90
37972;DHT22;23794;48.234;8.344;2022-09-17T13:42:05;11.60;99.90
37972;DHT22;23794;48.234;8.344;2022-09-17T13:44:35;11.70;99.90
37972;DHT22;23794;48.234;8.344;2022-09-17T13:47:19;11.70;99.90
37972;DHT22;23794;48.234;8.344;2022-09-17T13:49:50;11.70;99.90
37972;DHT22;23794;48.234;8.344;2022-09-17T13:52:43;11.70;99.90
37972;DHT22;23794;48.234;8.344;2022-09-17T13:55:30;11.80;99.90
37972;DHT22;23794;48.234;8.344;2022-09-17T13:58:04;11.80;99.90
37972;DHT22;23794;48.234;8.344;2022-09-17T14:16:49;12.00;99.90
37972;DHT22;23794;48.234;8.344;2022-09-17T14:19:46;12.10;99.90
37972;DHT22;23794;48.234;8.344;2022-09-17T14:22:25;12.40;99.90
37972;DHT22;23794;48.234;8.344;2022-09-17T14:24:53;12.40;99.90
37972;DHT22;23794;48.234;8.344;2022-09-17T14:30:21;12.30;99.90
37972;DHT22;23794;48.234;8.344;2022-09-17T14:40:59;12.40;99.90
37972;DHT22;23794;48.234;8.344;2022-09-17T14:43:47;12.30;99.90
37972;DHT22;23794;48.234;8.344;2022-09-17T14:46:24;12.40;99.90
37972;DHT22;23794;48.234;8.344;2022-09-17T14:48:53;12.50;99.90
37972;DHT22;23794;48.234;8.344;2022-09-17T14:51:25;12.40;99.90
37972;DHT22;23794;48.234;8.344;2022-09-17T14:56:35;12.40;99.90
37972;DHT22;23794;48.234;8.344;2022-09-17T14:59:08;12.30;99.90
37972;DHT22;23794;48.234;8.344;2022-09-17T15:01:45;12.20;99.90
37972;DHT22;23794;48.234;8.344;2022-09-17T15:06:41;12.10;99.90
37972;DHT22;23794;48.234;8.344;2022-09-17T15:09:28;12.10;99.90
37972;DHT22;23794;48.234;8.344;2022-09-17T15:11:58;12.20;99.90
37972;DHT22;23794;48.234;8.344;2022-09-17T15:14:30;12.10;99.90
37972;DHT22;23794;48.234;8.344;2022-09-17T15:16:59;12.00;99.90
37972;DHT22;23794;48.234;8.344;2022-09-17T15:19:39;11.90;99.90
37972;DHT22;23794;48.234;8.344;2022-09-17T15:22:16;11.90;99.90
37972;DHT22;23794;48.234;8.344;2022-09-17T15:24:53;11.80;99.90
37972;DHT22;23794;48.234;8.344;2022-09-17T15:27:30;11.80;99.90
37972;DHT22;23794;48.234;8.344;2022-09-17T15:30:17;11.70;99.90
37972;DHT22;23794;48.234;8.344;2022-09-17T15:32:57;11.60;99.90
37972;DHT22;23794;48.234;8.344;2022-09-17T15:35:30;11.50;99.90
37972;DHT22;23794;48.234;8.344;2022-09-17T15:37:59;11.50;99.90
37972;DHT22;23794;48.234;8.344;2022-09-17T15:40:48;11.50;99.90
37972;DHT22;23794;48.234;8.344;2022-09-17T15:43:29;11.50;99.90
37972;DHT22;23794;48.234;8.344;2022-09-17T15:45:56;11.50;99.90
37972;DHT22;23794;48.234;8.344;2022-09-17T15:51:05;11.60;99.90
37972;DHT22;23794;48.234;8.344;2022-09-17T15:53:38;11.40;99.90
37972;DHT22;23794;48.234;8.344;2022-09-17T15:56:08;11.20;99.90
37972;DHT22;23794;48.234;8.344;2022-09-17T16:08:54;11.20;99.90
37972;DHT22;23794;48.234;8.344;2022-09-17T16:11:23;11.30;99.90
37972;DHT22;23794;48.234;8.344;2022-09-17T16:13:55;11.20;99.90
37972;DHT22;23794;48.234;8.344;2022-09-17T16:16:35;11.30;99.90
37972;DHT22;23794;48.234;8.344;2022-09-17T16:19:04;11.30;99.90
37972;DHT22;23794;48.234;8.344;2022-09-17T16:21:31;11.30;99.90
37972;DHT22;23794;48.234;8.344;2022-09-17T16:23:58;11.20;99.90
37972;DHT22;23794;48.234;8.344;2022-09-17T16:26:30;11.00;99.90
37972;DHT22;23794;48.234;8.344;2022-09-17T16:29:02;11.00;99.90
37972;DHT22;23794;48.234;8.344;2022-09-17T16:31:30;10.90;99.90
37972;DHT22;23794;48.234;8.344;2022-09-17T16:33:57;10.90;99.90
37972;DHT22;23794;48.234;8.344;2022-09-17T16:36:25;10.80;99.90
37972;DHT22;23794;48.234;8.344;2022-09-17T16:38:52;10.80;99.90
37972;DHT22;23794;48.234;8.344;2022-09-17T16:41:19;10.50;99.90
37972;DHT22;23794;48.234;8.344;2022-09-17T16:43:46;10.60;99.90
37972;DHT22;23794;48.234;8.344;2022-09-17T16:46:13;10.40;99.90
37972;DHT22;23794;48.234;8.344;2022-09-17T16:48:41;10.40;99.90
37972;DHT22;23794;48.234;8.344;2022-09-17T16:51:10;10.40;99.90
37972;DHT22;23794;48.234;8.344;2022-09-17T16:53:38;10.10;99.90
37972;DHT22;23794;48.234;8.344;2022-09-17T16:56:09;10.10;99.90
37972;DHT22;23794;48.234;8.344;2022-09-17T16:58:37;10.10;99.90
37972;DHT22;23794;48.234;8.344;2022-09-17T17:01:08;10.10;99.90
37972;DHT22;23794;48.234;8.344;2022-09-17T17:03:35;10.10;99.90
37972;DHT22;23794;48.234;8.344;2022-09-17T17:06:02;10.00;99.90
37972;DHT22;23794;48.234;8.344;2022-09-17T17:08:33;10.10;99.90
37972;DHT22;23794;48.234;8.344;2022-09-17T17:11:00;10.00;99.90
37972;DHT22;23794;48.234;8.344;2022-09-17T17:13:27;10.00;99.90
37972;DHT22;23794;48.234;8.344;2022-09-17T17:15:54;10.00;99.90
37972;DHT22;23794;48.234;8.344;2022-09-17T17:18:21;9.90;99.90
37972;DHT22;23794;48.234;8.344;2022-09-17T17:20:48;9.90;99.90
37972;DHT22;23794;48.234;8.344;2022-09-17T17:23:16;9.90;99.90
37972;DHT22;23794;48.234;8.344;2022-09-17T17:25:42;9.80;99.90
37972;DHT22;23794;48.234;8.344;2022-09-17T17:28:09;9.90;99.90
37972;DHT22;23794;48.234;8.344;2022-09-17T17:30:36;9.80;99.90
37972;DHT22;23794;48.234;8.344;2022-09-17T17:33:04;9.70;99.90
37972;DHT22;23794;48.234;8.344;2022-09-17T17:35:31;9.70;99.90
37972;DHT22;23794;48.234;8.344;2022-09-17T17:37:58;9.60;99.90
37972;DHT22;23794;48.234;8.344;2022-09-17T17:40:24;9.70;99.90
37972;DHT22;23794;48.234;8.344;2022-09-17T17:42:52;9.60;99.90
37972;DHT22;23794;48.234;8.344;2022-09-17T17:45:21;9.60;99.90
37972;DHT22;23794;48.234;8.344;2022-09-17T17:47:48;9.60;99.90
37972;DHT22;23794;48.234;8.344;2022-09-17T17:50:14;9.50;99.90
37972;DHT22;23794;48.234;8.344;2022-09-17T17:52:42;9.40;99.90
37972;DHT22;23794;48.234;8.344;2022-09-17T17:55:14;9.50;99.90
37972;DHT22;23794;48.234;8.344;2022-09-17T17:57:41;9.50;99.90
37972;DHT22;23794;48.234;8.344;2022-09-17T18:00:08;9.50;99.90
37972;DHT22;23794;48.234;8.344;2022-09-17T18:02:38;9.50;99.90
37972;DHT22;23794;48.234;8.344;2022-09-17T18:05:06;9.50;99.90
37972;DHT22;23794;48.234;8.344;2022-09-17T18:07:33;9.50;99.90
37972;DHT22;23794;48.234;8.344;2022-09-17T18:10:00;9.50;99.90
37972;DHT22;23794;48.234;8.344;2022-09-17T18:12:27;9.40;99.90
37972;DHT22;23794;48.234;8.344;2022-09-17T18:14:53;9.40;99.90
37972;DHT22;23794;48.234;8.344;2022-09-17T18:17:20;9.40;99.90
37972;DHT22;23794;48.234;8.344;2022-09-17T18:19:47;9.40;99.90
37972;DHT22;23794;48.234;8.344;2022-09-17T18:22:14;9.40;99.90
37972;DHT22;23794;48.234;8.344;2022-09-17T18:24:40;9.30;99.90
37972;DHT22;23794;48.234;8.344;2022-09-17T18:27:07;9.20;99.90
37972;DHT22;23794;48.234;8.344;2022-09-17T18:29:34;9.20;99.90
37972;DHT22;23794;48.234;8.344;2022-09-17T18:32:01;9.10;99.90
37972;DHT22;23794;48.234;8.344;2022-09-17T18:34:28;9.00;99.90
37972;DHT22;23794;48.234;8.344;2022-09-17T18:36:55;9.10;99.90
37972;DHT22;23794;48.234;8.344;2022-09-17T18:39:22;9.10;99.90
37972;DHT22;23794;48.234;8.344;2022-09-17T18:42:09;9.10;99.90
37972;DHT22;23794;48.234;8.344;2022-09-17T18:44:35;9.10;99.90
37972;DHT22;23794;48.234;8.344;2022-09-17T18:47:03;9.10;99.90
37972;DHT22;23794;48.234;8.344;2022-09-17T18:49:30;9.00;99.90
37972;DHT22;23794;48.234;8.344;2022-09-17T18:51:57;9.00;99.90
37972;DHT22;23794;48.234;8.344;2022-09-17T18:54:24;9.00;99.90
37972;DHT22;23794;48.234;8.344;2022-09-17T18:56:51;9.00;99.90
37972;DHT22;23794;48.234;8.344;2022-09-17T18:59:17;9.00;99.90
37972;DHT22;23794;48.234;8.344;2022-09-17T19:01:44;9.00;99.90
37972;DHT22;23794;48.234;8.344;2022-09-17T19:04:11;9.00;99.90
37972;DHT22;23794;48.234;8.344;2022-09-17T19:06:38;8.90;99.90
37972;DHT22;23794;48.234;8.344;2022-09-17T19:09:06;8.90;99.90
37972;DHT22;23794;48.234;8.344;2022-09-17T19:11:34;8.90;99.90
37972;DHT22;23794;48.234;8.344;2022-09-17T19:14:02;8.90;99.90
37972;DHT22;23794;48.234;8.344;2022-09-17T19:16:29;9.00;99.90
37972;DHT22;23794;48.234;8.344;2022-09-17T19:18:56;9.00;99.90